Time;durP1;ratioP1;P1;durP2;ratioP2;P2;SDS_P1;SDS_P2;PMS_P1;PMS_P2;Temp;Humidity;BMP_temperature;BMP_pressure;BME280_temperature;BME280_humidity;BME280_pressure;Samples;Min_cycle;Max_cycle;Signal;HPM_P1;HPM_P2
2023/06/15 00:00:17;;;;;;;17.20;16.00;;;13.00;99.90;;;;;;5063588;28;20489;-43
2023/06/15 00:02:43;;;;;;;18.30;17.00;;;12.90;99.90;;;;;;5045133;28;20431;-48
2023/06/15 00:05:09;;;;;;;17.53;16.23;;;12.90;99.90;;;;;;5063281;28;20470;-45
2023/06/15 00:07:34;;;;;;;17.57;16.17;;;12.80;99.90;;;;;;5063064;28;20241;-44
2023/06/15 00:10:00;;;;;;;17.93;16.60;;;12.90;99.90;;;;;;5062811;28;20568;-43
2023/06/15 00:12:25;;;;;;;17.97;16.67;;;12.80;99.90;;;;;;5062971;28;20742;-44
2023/06/15 00:14:51;;;;;;;18.40;16.97;;;12.90;99.90;;;;;;5062369;28;20176;-43
2023/06/15 00:17:17;;;;;;;18.30;17.00;;;12.80;99.90;;;;;;5060168;28;20662;-45
2023/06/15 00:19:44;;;;;;;18.80;17.10;;;12.90;99.90;;;;;;5061936;28;20181;-42
2023/06/15 00:22:14;;;;;;;17.60;16.30;;;12.80;99.90;;;;;;5062136;28;20529;-43
2023/06/15 00:24:41;;;;;;;17.53;16.23;;;12.80;99.90;;;;;;5061121;28;20528;-45
2023/06/15 00:27:08;;;;;;;17.17;15.77;;;12.80;99.90;;;;;;5062420;28;20471;-41
2023/06/15 00:29:34;;;;;;;18.83;17.43;;;12.80;99.90;;;;;;5062254;28;21220;-42
2023/06/15 00:32:00;;;;;;;17.50;16.30;;;12.80;99.90;;;;;;5062787;28;20461;-42
2023/06/15 00:34:25;;;;;;;18.47;16.97;;;12.80;99.90;;;;;;5063097;28;21320;-42
2023/06/15 00:36:51;;;;;;;18.43;17.13;;;12.80;99.90;;;;;;5062864;28;20407;-42
2023/06/15 00:39:18;;;;;;;17.47;16.27;;;12.80;99.90;;;;;;5062892;28;20588;-44
2023/06/15 00:41:44;;;;;;;17.47;16.17;;;12.80;99.90;;;;;;5062970;28;20402;-45
2023/06/15 00:44:10;;;;;;;17.90;16.60;;;12.80;99.90;;;;;;5062445;28;20506;-45
2023/06/15 00:46:37;;;;;;;18.07;16.70;;;12.90;99.90;;;;;;5062309;28;20526;-42
2023/06/15 00:49:03;;;;;;;17.60;16.33;;;12.90;99.90;;;;;;5061764;28;20462;-42
2023/06/15 00:51:30;;;;;;;17.60;16.30;;;12.90;99.90;;;;;;5062178;28;20419;-43
2023/06/15 00:53:57;;;;;;;18.73;17.33;;;13.00;99.90;;;;;;5062185;28;20465;-42
2023/06/15 00:56:23;;;;;;;18.17;16.97;;;13.00;99.90;;;;;;5062390;28;20439;-44
2023/06/15 00:58:49;;;;;;;17.20;16.00;;;13.00;99.90;;;;;;5061805;28;20442;-43
2023/06/15 01:01:15;;;;;;;18.53;17.13;;;13.00;99.90;;;;;;5062164;28;21288;-43
2023/06/15 01:03:44;;;;;;;17.90;16.60;;;13.00;99.90;;;;;;5062279;28;20473;-45
2023/06/15 01:06:13;;;;;;;17.87;16.57;;;13.00;99.90;;;;;;5061814;28;20184;-46
2023/06/15 01:08:42;;;;;;;16.37;15.17;;;13.10;99.90;;;;;;5062252;28;21000;-42
2023/06/15 01:11:08;;;;;;;17.63;16.33;;;13.10;99.90;;;;;;5061885;28;20979;-45
2023/06/15 01:13:35;;;;;;;17.67;16.27;;;13.00;99.90;;;;;;5043792;28;20507;-44
2023/06/15 01:16:03;;;;;;;17.63;16.33;;;13.10;99.90;;;;;;5061693;28;20419;-43
2023/06/15 01:18:33;;;;;;;17.73;16.43;;;13.10;99.90;;;;;;5061130;28;20794;-43
2023/06/15 01:21:01;;;;;;;17.87;16.57;;;13.10;99.90;;;;;;5062119;28;20936;-43
2023/06/15 01:23:33;;;;;;;18.00;16.70;;;13.20;99.90;;;;;;5061845;28;20635;-42
2023/06/15 01:26:07;;;;;;;17.77;16.37;;;13.20;99.90;;;;;;5060880;28;20474;-46
2023/06/15 01:28:35;;;;;;;17.17;15.97;;;13.20;99.90;;;;;;5061502;28;20512;-42
2023/06/15 01:31:01;;;;;;;17.30;16.00;;;13.10;99.90;;;;;;5061003;28;20422;-42
2023/06/15 01:33:27;;;;;;;17.93;16.63;;;13.10;99.90;;;;;;5061169;28;20439;-43
2023/06/15 01:35:53;;;;;;;18.23;16.83;;;13.00;99.90;;;;;;5059880;28;20431;-43
2023/06/15 01:38:23;;;;;;;18.53;17.17;;;13.00;99.90;;;;;;5042569;28;20193;-42
2023/06/15 01:40:51;;;;;;;18.10;16.70;;;13.00;99.90;;;;;;5059864;28;20197;-44
2023/06/15 01:43:20;;;;;;;18.17;16.83;;;13.00;99.90;;;;;;5058804;28;20444;-42
2023/06/15 01:45:46;;;;;;;17.80;16.40;;;13.00;99.90;;;;;;5059402;28;21174;-44
2023/06/15 01:48:12;;;;;;;17.00;15.90;;;12.90;99.90;;;;;;5058256;28;20481;-44
2023/06/15 01:50:40;;;;;;;16.90;15.70;;;12.90;99.90;;;;;;5058829;28;20772;-44
2023/06/15 01:53:05;;;;;;;17.17;15.87;;;13.00;99.90;;;;;;5059479;28;20791;-45
2023/06/15 01:55:31;;;;;;;17.50;16.30;;;13.00;99.90;;;;;;5059973;28;20430;-43
2023/06/15 01:57:57;;;;;;;17.67;16.37;;;13.00;99.90;;;;;;5059925;28;20456;-43
2023/06/15 02:00:25;;;;;;;17.70;16.40;;;13.00;99.90;;;;;;5060194;28;20182;-41
2023/06/15 02:02:50;;;;;;;16.73;15.53;;;13.00;99.90;;;;;;5059964;28;20246;-42
2023/06/15 02:05:17;;;;;;;17.00;15.80;;;13.00;99.90;;;;;;5060580;28;20447;-44
2023/06/15 02:07:43;;;;;;;18.10;16.77;;;13.00;99.90;;;;;;5059566;28;20663;-46
2023/06/15 02:10:09;;;;;;;17.60;16.30;;;13.00;99.90;;;;;;5059843;28;20426;-46
2023/06/15 02:12:35;;;;;;;17.63;16.40;;;13.00;99.90;;;;;;5059793;28;20415;-41
2023/06/15 02:15:01;;;;;;;17.23;15.93;;;13.00;99.90;;;;;;5060017;28;20987;-47
2023/06/15 02:17:30;;;;;;;17.17;15.97;;;13.00;99.90;;;;;;5059628;28;20884;-41
2023/06/15 02:19:57;;;;;;;17.73;16.43;;;13.00;99.90;;;;;;5040969;28;20439;-45
2023/06/15 02:22:23;;;;;;;16.53;15.43;;;13.00;99.90;;;;;;5059780;28;20416;-42
2023/06/15 02:24:49;;;;;;;17.40;16.10;;;13.10;99.90;;;;;;5059376;28;20462;-41
2023/06/15 02:27:15;;;;;;;17.07;15.87;;;13.10;99.90;;;;;;5059621;28;20462;-45
2023/06/15 02:29:41;;;;;;;17.80;16.53;;;13.10;99.90;;;;;;5059585;28;20419;-45
2023/06/15 02:32:07;;;;;;;18.20;16.80;;;13.10;99.90;;;;;;5059369;28;20818;-42
2023/06/15 02:34:33;;;;;;;17.13;15.93;;;13.10;99.90;;;;;;5059672;28;20229;-44
2023/06/15 02:36:58;;;;;;;17.60;16.30;;;13.00;99.90;;;;;;5059393;28;20504;-43
2023/06/15 02:39:24;;;;;;;18.63;17.33;;;13.00;99.90;;;;;;5059847;28;20415;-43
2023/06/15 02:41:50;;;;;;;18.13;16.80;;;13.00;99.90;;;;;;5059488;28;20173;-44
2023/06/15 02:44:16;;;;;;;18.77;17.27;;;13.00;99.90;;;;;;5059354;28;20273;-41
2023/06/15 02:46:42;;;;;;;17.83;16.63;;;13.00;99.90;;;;;;5059079;28;20486;-44
2023/06/15 02:49:08;;;;;;;18.43;16.93;;;13.00;99.90;;;;;;5057784;28;20177;-46
2023/06/15 02:51:35;;;;;;;16.53;15.40;;;13.00;99.90;;;;;;5056822;28;20811;-41
2023/06/15 02:54:01;;;;;;;18.10;16.80;;;12.90;99.90;;;;;;5058600;28;20188;-46
2023/06/15 02:56:29;;;;;;;17.57;16.33;;;12.90;99.90;;;;;;5058398;28;20443;-44
2023/06/15 02:58:54;;;;;;;17.90;16.60;;;12.90;99.90;;;;;;5059129;28;20189;-42
2023/06/15 03:01:23;;;;;;;17.60;16.40;;;12.90;99.90;;;;;;5059101;28;20994;-43
2023/06/15 03:03:52;;;;;;;17.40;16.20;;;12.90;99.90;;;;;;5058338;28;20188;-43
2023/06/15 03:06:18;;;;;;;17.97;16.67;;;12.90;99.90;;;;;;5040358;28;20952;-43
2023/06/15 03:08:44;;;;;;;17.60;16.00;;;12.90;99.90;;;;;;5058309;28;20505;-47
2023/06/15 03:11:10;;;;;;;18.20;17.00;;;13.00;99.90;;;;;;5058546;28;20428;-44
2023/06/15 03:13:36;;;;;;;17.10;15.80;;;13.00;99.90;;;;;;5040838;28;21087;-42
2023/06/15 03:16:02;;;;;;;17.43;16.13;;;13.00;99.90;;;;;;5058383;28;20181;-45
2023/06/15 03:18:31;;;;;;;16.20;15.10;;;13.10;99.90;;;;;;5059429;28;20649;-42
2023/06/15 03:20:57;;;;;;;17.57;16.27;;;13.10;99.90;;;;;;5058843;28;20419;-46
2023/06/15 03:23:25;;;;;;;16.33;15.13;;;13.20;99.90;;;;;;5058714;28;20472;-45
2023/06/15 03:25:52;;;;;;;17.50;16.20;;;13.20;99.90;;;;;;5058931;28;20467;-45
2023/06/15 03:28:27;;;;;;;17.13;15.83;;;13.30;99.90;;;;;;5059066;28;20459;-45
2023/06/15 03:30:56;;;;;;;16.70;15.50;;;13.30;99.90;;;;;;5041085;28;20430;-44
2023/06/15 03:33:22;;;;;;;16.90;15.63;;;13.30;99.90;;;;;;5058856;28;20452;-42
2023/06/15 03:35:53;;;;;;;17.40;16.10;;;13.30;99.90;;;;;;5058678;28;21115;-45
2023/06/15 03:38:19;;;;;;;16.20;15.00;;;13.30;99.90;;;;;;5058914;28;20423;-41
2023/06/15 03:40:45;;;;;;;16.60;15.40;;;13.30;99.90;;;;;;5059366;28;20725;-45
2023/06/15 03:43:11;;;;;;;16.80;15.60;;;13.20;99.90;;;;;;5058968;28;20956;-43
2023/06/15 03:45:38;;;;;;;17.40;16.10;;;13.20;99.90;;;;;;5058837;28;20200;-47
2023/06/15 03:48:04;;;;;;;17.00;15.70;;;13.20;99.90;;;;;;5057058;28;20953;-44
2023/06/15 03:50:29;;;;;;;16.83;15.60;;;13.10;99.90;;;;;;5058403;28;20435;-44
2023/06/15 03:52:56;;;;;;;16.93;15.63;;;13.10;99.90;;;;;;5058912;28;21038;-44
2023/06/15 03:55:21;;;;;;;17.13;15.83;;;13.10;99.90;;;;;;5058959;28;20520;-46
2023/06/15 03:57:47;;;;;;;17.70;16.20;;;13.10;99.90;;;;;;5059462;28;20500;-44
2023/06/15 04:00:13;;;;;;;17.30;16.13;;;13.10;99.90;;;;;;5062383;28;20298;-43
2023/06/15 04:02:39;;;;;;;17.03;15.80;;;13.10;99.90;;;;;;5061793;28;20196;-42
2023/06/15 04:05:05;;;;;;;17.10;15.90;;;13.10;99.90;;;;;;5062209;28;20438;-42
2023/06/15 04:07:31;;;;;;;16.93;15.73;;;13.10;99.90;;;;;;5062071;28;20964;-43
2023/06/15 04:09:56;;;;;;;16.70;15.40;;;13.10;99.90;;;;;;5062366;28;20189;-43
2023/06/15 04:12:23;;;;;;;17.07;15.83;;;13.10;99.90;;;;;;5061813;28;20781;-43
2023/06/15 04:14:48;;;;;;;18.40;16.90;;;13.20;99.90;;;;;;5061976;28;20181;-44
2023/06/15 04:17:15;;;;;;;17.10;15.90;;;13.20;99.90;;;;;;5060620;28;20439;-42
2023/06/15 04:19:40;;;;;;;16.47;15.27;;;13.20;99.90;;;;;;5059484;28;20227;-45
2023/06/15 04:22:06;;;;;;;17.57;16.13;;;13.30;99.90;;;;;;5060447;28;20572;-45
2023/06/15 04:24:32;;;;;;;17.53;16.33;;;13.30;99.90;;;;;;5060946;28;20786;-43
2023/06/15 04:26:57;;;;;;;16.97;15.80;;;13.40;99.90;;;;;;5061239;28;20192;-43
2023/06/15 04:29:23;;;;;;;17.80;16.50;;;13.40;99.90;;;;;;5060698;28;20436;-43
2023/06/15 04:31:55;;;;;;;17.43;16.23;;;13.50;99.90;;;;;;5061401;28;20600;-42
2023/06/15 04:34:26;;;;;;;18.70;17.30;;;13.50;99.90;;;;;;5061563;28;20259;-43
2023/06/15 04:36:52;;;;;;;17.40;16.20;;;13.60;99.90;;;;;;5062251;28;20412;-46
2023/06/15 04:39:22;;;;;;;17.57;16.20;;;13.60;99.90;;;;;;5043428;28;20518;-43
2023/06/15 04:41:47;;;;;;;18.33;16.90;;;13.70;99.90;;;;;;5061429;28;20434;-46
2023/06/15 04:44:13;;;;;;;16.30;15.20;;;13.70;99.90;;;;;;5061178;28;20894;-42
2023/06/15 04:46:41;;;;;;;17.23;16.03;;;13.60;99.90;;;;;;5060122;28;20181;-44
2023/06/15 04:49:08;;;;;;;16.73;15.47;;;13.70;99.90;;;;;;5061687;28;20579;-42
2023/06/15 04:51:34;;;;;;;17.00;15.70;;;13.70;99.90;;;;;;5061571;28;20434;-45
2023/06/15 04:53:59;;;;;;;17.80;16.47;;;13.80;99.90;;;;;;5061095;28;20427;-44
2023/06/15 04:56:25;;;;;;;17.80;16.40;;;13.90;99.90;;;;;;5060673;28;20275;-44
2023/06/15 04:58:51;;;;;;;17.00;15.73;;;14.00;99.90;;;;;;5057802;28;20451;-43
2023/06/15 05:01:17;;;;;;;16.90;15.70;;;14.10;99.90;;;;;;5058066;28;20199;-43
2023/06/15 05:03:43;;;;;;;17.57;16.20;;;14.20;99.90;;;;;;5058614;28;20188;-45
2023/06/15 05:06:08;;;;;;;16.73;15.47;;;14.30;99.90;;;;;;5059542;28;20431;-45
2023/06/15 05:08:35;;;;;;;16.70;15.50;;;14.30;99.90;;;;;;5060630;28;20288;-43
2023/06/15 05:11:02;;;;;;;17.57;16.27;;;14.40;99.90;;;;;;5042368;28;20196;-42
2023/06/15 05:13:28;;;;;;;18.57;17.20;;;14.30;99.90;;;;;;5060267;28;20427;-40
2023/06/15 05:15:54;;;;;;;16.47;15.27;;;14.30;99.90;;;;;;5060769;28;20510;-42
2023/06/15 05:18:19;;;;;;;17.07;15.73;;;14.30;99.90;;;;;;5061389;28;21232;-42
2023/06/15 05:20:45;;;;;;;16.37;15.27;;;14.40;99.90;;;;;;5060687;28;20192;-44
2023/06/15 05:23:11;;;;;;;17.23;15.87;;;14.30;99.90;;;;;;5061117;28;20187;-43
2023/06/15 05:25:37;;;;;;;16.50;15.40;;;14.30;99.90;;;;;;5060563;28;20466;-48
2023/06/15 05:28:03;;;;;;;17.87;16.60;;;14.40;99.90;;;;;;5059417;28;20481;-43
2023/06/15 05:30:29;;;;;;;17.60;16.30;;;14.40;99.90;;;;;;5059435;28;20284;-42
2023/06/15 05:32:54;;;;;;;17.20;16.00;;;14.40;99.90;;;;;;5060557;28;20181;-42
2023/06/15 05:35:20;;;;;;;17.00;15.80;;;14.50;99.90;;;;;;5061000;28;20419;-45
2023/06/15 05:37:46;;;;;;;17.43;16.13;;;14.50;99.90;;;;;;5042674;28;20251;-41
2023/06/15 05:40:14;;;;;;;16.97;15.67;;;14.50;99.90;;;;;;5060647;28;20854;-41
2023/06/15 05:42:39;;;;;;;18.57;17.17;;;14.50;99.90;;;;;;5042608;28;20428;-41
2023/06/15 05:45:05;;;;;;;17.17;15.87;;;14.50;99.90;;;;;;5060198;28;20427;-43
2023/06/15 05:47:35;;;;;;;17.53;16.23;;;14.40;99.90;;;;;;5060514;28;20583;-45
2023/06/15 05:50:00;;;;;;;17.13;16.03;;;14.50;99.90;;;;;;5060834;28;20437;-45
2023/06/15 05:52:26;;;;;;;17.37;16.07;;;14.50;99.90;;;;;;5060161;28;20423;-45
2023/06/15 05:54:52;;;;;;;17.10;15.80;;;14.50;99.90;;;;;;5060442;28;20193;-41
2023/06/15 05:57:17;;;;;;;17.23;15.97;;;14.60;99.90;;;;;;5059477;28;20275;-44
2023/06/15 05:59:46;;;;;;;17.83;16.53;;;14.60;99.90;;;;;;5059678;28;20197;-46
2023/06/15 06:02:12;;;;;;;17.37;16.10;;;14.70;99.90;;;;;;5060082;28;20181;-43
2023/06/15 06:04:38;;;;;;;18.73;17.23;;;14.70;99.90;;;;;;5060283;28;20424;-42
2023/06/15 06:07:07;;;;;;;17.57;16.27;;;14.70;99.90;;;;;;5056918;28;20435;-43
2023/06/15 06:09:33;;;;;;;16.93;15.80;;;14.80;99.90;;;;;;5059986;28;20246;-45
2023/06/15 06:12:00;;;;;;;16.97;15.80;;;14.90;99.90;;;;;;5060151;28;20454;-43
2023/06/15 06:14:26;;;;;;;18.03;16.63;;;14.90;99.90;;;;;;5060379;28;20423;-43
2023/06/15 06:16:52;;;;;;;18.13;16.83;;;14.90;99.90;;;;;;5059785;28;20837;-44
2023/06/15 06:19:18;;;;;;;17.90;16.50;;;15.00;99.90;;;;;;5060102;28;20477;-41
2023/06/15 06:21:43;;;;;;;17.60;16.20;;;15.10;99.90;;;;;;5059371;28;20180;-40
2023/06/15 06:24:09;;;;;;;17.60;16.30;;;15.20;99.90;;;;;;5058632;28;20517;-43
2023/06/15 06:26:35;;;;;;;17.50;16.20;;;15.20;99.90;;;;;;5059165;28;20263;-48
2023/06/15 06:29:01;;;;;;;16.80;15.50;;;15.20;99.90;;;;;;5060375;28;20711;-45
2023/06/15 06:31:26;;;;;;;17.30;16.00;;;15.20;99.90;;;;;;5059808;28;20512;-42
2023/06/15 06:33:52;;;;;;;18.30;16.90;;;15.30;99.90;;;;;;5059858;28;20187;-45
2023/06/15 06:36:18;;;;;;;18.10;16.73;;;15.30;99.90;;;;;;5059506;28;20264;-42
2023/06/15 06:38:43;;;;;;;16.53;15.23;;;15.40;99.90;;;;;;5059730;28;20639;-43
2023/06/15 06:41:09;;;;;;;17.60;16.20;;;15.40;99.90;;;;;;5059347;28;20274;-45
2023/06/15 06:43:35;;;;;;;17.00;15.80;;;15.50;99.90;;;;;;5059827;28;20271;-44
2023/06/15 06:46:01;;;;;;;16.87;15.67;;;15.50;99.90;;;;;;5059539;28;20477;-42
2023/06/15 06:48:27;;;;;;;17.80;16.40;;;15.50;99.90;;;;;;5041600;28;20565;-43
2023/06/15 06:50:53;;;;;;;16.90;15.70;;;15.60;99.90;;;;;;5059196;28;20189;-45
2023/06/15 06:53:18;;;;;;;17.10;15.70;;;15.60;99.90;;;;;;5059173;28;20208;-49
2023/06/15 06:55:45;;;;;;;17.10;15.90;;;15.70;99.90;;;;;;5056333;28;20594;-44
2023/06/15 06:58:10;;;;;;;16.40;15.20;;;15.80;99.90;;;;;;5058065;28;20538;-47
2023/06/15 07:00:36;;;;;;;16.80;15.50;;;15.90;99.90;;;;;;5059904;28;20430;-52
2023/06/15 07:03:02;;;;;;;16.80;15.57;;;16.00;99.90;;;;;;5059456;28;20430;-52
2023/06/15 07:05:28;;;;;;;17.63;16.43;;;16.00;99.90;;;;;;5059259;28;20196;-49
2023/06/15 07:07:53;;;;;;;17.63;16.33;;;16.10;99.90;;;;;;5059466;28;20300;-49
2023/06/15 07:10:19;;;;;;;17.43;16.03;;;16.10;99.90;;;;;;5060009;28;20733;-50
2023/06/15 07:12:45;;;;;;;16.70;15.50;;;16.20;99.90;;;;;;5059586;28;20189;-52
2023/06/15 07:15:10;;;;;;;16.43;15.23;;;16.20;99.90;;;;;;5059361;28;20211;-48
2023/06/15 07:17:36;;;;;;;17.50;16.10;;;16.30;99.90;;;;;;5059378;28;20203;-50
2023/06/15 07:20:02;;;;;;;16.60;15.30;;;16.50;99.90;;;;;;5059667;28;20194;-47
2023/06/15 07:22:28;;;;;;;18.33;17.03;;;16.60;99.90;;;;;;5058479;28;20671;-50
2023/06/15 07:24:54;;;;;;;17.40;16.23;;;16.80;99.90;;;;;;5057075;28;20482;-49
2023/06/15 07:27:20;;;;;;;17.20;16.00;;;16.80;99.90;;;;;;5058871;28;20254;-48
2023/06/15 07:29:45;;;;;;;18.03;16.63;;;16.90;99.90;;;;;;5059238;28;20699;-51
2023/06/15 07:32:11;;;;;;;17.43;16.13;;;17.00;99.90;;;;;;5059531;28;20515;-50
2023/06/15 07:34:37;;;;;;;17.47;16.07;;;17.10;99.90;;;;;;5062079;28;20189;-50
2023/06/15 07:37:03;;;;;;;17.83;16.63;;;17.20;99.90;;;;;;5063339;28;20193;-48
2023/06/15 07:39:29;;;;;;;16.73;15.57;;;17.40;99.90;;;;;;5062654;28;20533;-53
2023/06/15 07:41:55;;;;;;;16.87;15.67;;;17.60;99.90;;;;;;5062562;28;20424;-48
2023/06/15 07:44:21;;;;;;;17.50;16.33;;;17.70;99.90;;;;;;5063040;28;20423;-53
2023/06/15 07:46:46;;;;;;;16.27;14.97;;;17.80;99.90;;;;;;5044279;28;20439;-52
2023/06/15 07:49:12;;;;;;;16.23;15.13;;;18.00;99.90;;;;;;5063174;28;20458;-49
2023/06/15 07:51:38;;;;;;;16.47;15.37;;;18.20;99.90;;;;;;5061923;28;20177;-51
2023/06/15 07:54:04;;;;;;;17.33;16.13;;;18.40;99.90;;;;;;5062495;28;20192;-54
2023/06/15 07:56:30;;;;;;;15.90;14.80;;;18.60;99.60;;;;;;5062721;28;20419;-51
2023/06/15 07:58:56;;;;;;;17.80;16.57;;;18.80;99.60;;;;;;5062977;28;20834;-51
2023/06/15 08:01:21;;;;;;;16.50;15.30;;;19.10;98.80;;;;;;5062642;28;20231;-55
2023/06/15 08:03:47;;;;;;;16.77;15.57;;;19.30;98.00;;;;;;5062296;28;20456;-52
2023/06/15 08:06:12;;;;;;;16.27;15.17;;;19.40;97.00;;;;;;5062523;28;20586;-52
2023/06/15 08:08:38;;;;;;;15.90;14.87;;;19.50;97.10;;;;;;5062118;28;20208;-53
2023/06/15 08:11:07;;;;;;;16.60;15.40;;;19.70;96.30;;;;;;5062044;28;20670;-53
2023/06/15 08:13:33;;;;;;;16.53;15.43;;;19.70;95.70;;;;;;5062367;28;20181;-54
2023/06/15 08:15:59;;;;;;;17.97;16.67;;;19.90;95.10;;;;;;5062247;28;20420;-52
2023/06/15 08:18:28;;;;;;;17.30;16.07;;;20.00;95.00;;;;;;5062039;28;20200;-48
2023/06/15 08:20:53;;;;;;;17.03;15.93;;;20.00;94.70;;;;;;5060784;28;20467;-45
2023/06/15 08:23:19;;;;;;;17.00;15.90;;;20.20;94.80;;;;;;5043513;28;20550;-48
2023/06/15 08:25:47;;;;;;;16.30;15.20;;;20.40;94.60;;;;;;5061774;28;20236;-53
2023/06/15 08:28:13;;;;;;;18.00;16.70;;;20.50;94.30;;;;;;5061495;28;20620;-51
2023/06/15 08:30:38;;;;;;;16.17;15.07;;;20.70;92.60;;;;;;5044091;28;20442;-54
2023/06/15 08:33:04;;;;;;;16.67;15.67;;;20.50;93.00;;;;;;5061741;28;20187;-48
2023/06/15 08:35:30;;;;;;;15.87;14.87;;;20.60;93.50;;;;;;5062334;28;20185;-48
2023/06/15 08:37:55;;;;;;;15.57;14.57;;;21.00;93.10;;;;;;5062059;28;20432;-47
2023/06/15 08:40:21;;;;;;;15.97;14.97;;;21.40;92.60;;;;;;5061710;28;20512;-50
2023/06/15 08:42:47;;;;;;;16.47;15.37;;;21.70;91.10;;;;;;5062086;28;20193;-51
2023/06/15 08:45:13;;;;;;;15.43;14.43;;;21.70;89.20;;;;;;5060534;28;20362;-51
2023/06/15 08:47:40;;;;;;;15.20;14.20;;;21.70;87.60;;;;;;5061479;28;20223;-53
2023/06/15 08:50:07;;;;;;;15.33;14.43;;;21.90;89.00;;;;;;5060879;28;20940;-53
2023/06/15 08:52:37;;;;;;;15.10;14.10;;;22.00;86.10;;;;;;5061185;28;20438;-52
2023/06/15 08:55:04;;;;;;;16.70;15.07;;;22.20;88.00;;;;;;5043141;28;20542;-48
2023/06/15 08:57:32;;;;;;;15.57;14.60;;;22.60;83.60;;;;;;5060844;28;20477;-47
2023/06/15 08:59:58;;;;;;;15.47;14.53;;;22.70;82.40;;;;;;5061414;28;20420;-53
2023/06/15 09:02:25;;;;;;;15.03;14.10;;;22.80;81.20;;;;;;5061307;28;20424;-51
2023/06/15 09:04:51;;;;;;;15.87;14.97;;;23.00;80.00;;;;;;5061504;28;20514;-49
2023/06/15 09:07:21;;;;;;;13.60;12.90;;;23.20;78.10;;;;;;5060934;28;20493;-54
2023/06/15 09:10:08;;;;;;;14.80;14.03;;;23.50;76.80;;;;;;5061188;28;20512;-52
2023/06/15 09:12:34;;;;;;;14.53;13.73;;;23.80;77.50;;;;;;5060990;28;20560;-54
2023/06/15 09:15:00;;;;;;;14.60;13.80;;;23.80;72.00;;;;;;5061512;28;20511;-53
2023/06/15 09:17:29;;;;;;;14.70;13.77;;;24.00;71.80;;;;;;5060878;28;20189;-52
2023/06/15 09:19:55;;;;;;;14.30;13.20;;;24.00;70.90;;;;;;5060284;28;21070;-51
2023/06/15 09:22:21;;;;;;;14.40;13.40;;;23.80;67.00;;;;;;5060731;28;20423;-52
2023/06/15 09:24:47;;;;;;;14.20;13.30;;;23.90;67.90;;;;;;5042714;28;20497;-46
2023/06/15 09:27:16;;;;;;;13.57;12.77;;;23.80;67.90;;;;;;5060846;28;20578;-42
2023/06/15 09:30:02;;;;;;;13.37;12.67;;;24.00;67.10;;;;;;5060792;28;20181;-46
2023/06/15 09:32:29;;;;;;;12.77;12.07;;;24.50;67.50;;;;;;5060952;28;20434;-42
2023/06/15 09:34:58;;;;;;;13.40;12.70;;;24.90;66.20;;;;;;5060583;28;20455;-47
2023/06/15 09:37:30;;;;;;;14.30;13.43;;;25.60;64.50;;;;;;5060545;28;20419;-46
2023/06/15 09:39:56;;;;;;;13.60;12.80;;;26.10;57.10;;;;;;5060482;28;20455;-46
2023/06/15 09:42:27;;;;;;;13.60;12.87;;;26.00;55.20;;;;;;5060828;28;20435;-43
2023/06/15 09:44:56;;;;;;;13.80;13.03;;;26.10;51.90;;;;;;5060294;28;20718;-44
2023/06/15 09:47:29;;;;;;;14.10;13.20;;;25.70;52.30;;;;;;5059504;28;20499;-45
2023/06/15 09:49:55;;;;;;;13.60;12.90;;;26.10;52.40;;;;;;5060412;28;20419;-46
2023/06/15 09:52:20;;;;;;;14.07;13.27;;;26.60;50.20;;;;;;5060228;28;20423;-45
2023/06/15 09:54:47;;;;;;;14.50;13.67;;;27.20;49.60;;;;;;5060432;28;20430;-46
2023/06/15 09:57:16;;;;;;;13.23;12.53;;;27.10;47.40;;;;;;5059741;28;20181;-42
2023/06/15 09:59:42;;;;;;;14.33;13.53;;;27.60;47.10;;;;;;5060050;28;20455;-44
2023/06/15 10:02:12;;;;;;;13.10;12.40;;;28.10;46.50;;;;;;5042152;28;21000;-47
2023/06/15 10:04:40;;;;;;;13.70;12.80;;;28.60;44.00;;;;;;5060489;28;20516;-43
2023/06/15 10:07:10;;;;;;;13.23;12.43;;;28.80;42.10;;;;;;5060417;28;20762;-42
2023/06/15 10:09:45;;;;;;;12.70;12.00;;;29.00;41.80;;;;;;5060007;28;20906;-43
2023/06/15 10:12:20;;;;;;;13.40;12.70;;;28.80;41.90;;;;;;5059738;28;20426;-43
2023/06/15 10:14:53;;;;;;;13.37;12.63;;;28.90;41.60;;;;;;5041892;28;20445;-43
2023/06/15 10:17:24;;;;;;;13.80;13.10;;;28.50;39.90;;;;;;5059230;28;20431;-51
2023/06/15 10:19:52;;;;;;;14.77;13.80;;;28.10;39.90;;;;;;5042140;28;20457;-42
2023/06/15 10:22:21;;;;;;;14.70;13.90;;;27.60;41.30;;;;;;5059381;28;20441;-45
2023/06/15 10:24:47;;;;;;;13.93;13.13;;;28.10;43.10;;;;;;5058615;28;20489;-46
2023/06/15 10:27:14;;;;;;;12.73;12.03;;;28.90;41.10;;;;;;5059929;28;20442;-44
2023/06/15 10:30:02;;;;;;;15.10;14.30;;;29.10;38.70;;;;;;5059427;28;20473;-44
2023/06/15 10:32:43;;;;;;;13.00;12.30;;;29.10;37.90;;;;;;5059890;28;20422;-44
2023/06/15 10:35:29;;;;;;;14.20;13.40;;;29.70;37.40;;;;;;5059654;28;20420;-49
2023/06/15 10:38:14;;;;;;;12.30;11.60;;;29.50;36.10;;;;;;5059640;28;20453;-46
2023/06/15 10:40:48;;;;;;;14.70;13.80;;;29.80;37.20;;;;;;5060247;28;20426;-45
2023/06/15 10:43:24;;;;;;;13.90;13.10;;;30.30;34.90;;;;;;5059857;28;20453;-43
2023/06/15 10:45:50;;;;;;;14.37;13.67;;;30.70;34.30;;;;;;5057447;28;20441;-48
2023/06/15 10:48:21;;;;;;;14.27;13.47;;;31.00;34.00;;;;;;5041285;28;20471;-46
2023/06/15 10:50:51;;;;;;;13.60;12.60;;;31.10;30.40;;;;;;5059554;28;20221;-51
2023/06/15 10:53:27;;;;;;;14.07;13.13;;;31.30;31.00;;;;;;5059510;28;20535;-45
2023/06/15 10:55:55;;;;;;;13.43;12.73;;;31.60;31.30;;;;;;5059444;28;20423;-45
2023/06/15 10:58:21;;;;;;;14.40;13.60;;;32.10;28.70;;;;;;5059514;28;20985;-47
2023/06/15 11:01:04;;;;;;;13.03;12.33;;;31.60;28.60;;;;;;5059378;28;20501;-43
2023/06/15 11:03:32;;;;;;;14.60;13.70;;;31.60;29.70;;;;;;5059504;28;20427;-45
2023/06/15 11:06:07;;;;;;;13.83;13.10;;;31.70;29.40;;;;;;5059507;28;20426;-43
2023/06/15 11:08:52;;;;;;;14.63;13.70;;;32.50;30.20;;;;;;5060933;28;20486;-44
2023/06/15 11:11:21;;;;;;;13.73;13.03;;;32.30;27.20;;;;;;5063837;28;20427;-44
2023/06/15 11:14:22;;;;;;;14.30;13.50;;;32.60;28.10;;;;;;5061841;28;20470;-43
2023/06/15 11:17:05;;;;;;;12.97;12.27;;;32.40;26.50;;;;;;5003536;28;20771;-44
2023/06/15 11:19:31;;;;;;;14.60;13.60;;;32.10;26.80;;;;;;5059363;28;20492;-45
2023/06/15 11:22:04;;;;;;;13.80;13.10;;;31.20;26.90;;;;;;5063144;28;20415;-44
2023/06/15 11:24:38;;;;;;;13.60;12.90;;;31.20;28.20;;;;;;5062972;28;20558;-45
2023/06/15 11:27:05;;;;;;;14.30;13.03;;;31.60;26.50;;;;;;5063136;28;20768;-48
2023/06/15 11:29:33;;;;;;;13.93;13.23;;;31.80;26.30;;;;;;5062597;28;20411;-44
2023/06/15 11:32:04;;;;;;;14.53;13.37;;;32.00;25.70;;;;;;5062843;28;20407;-43
2023/06/15 11:34:33;;;;;;;13.57;12.83;;;32.50;25.60;;;;;;5063101;28;20434;-43
2023/06/15 11:37:00;;;;;;;13.97;13.27;;;32.30;24.40;;;;;;5062876;28;20411;-43
2023/06/15 11:39:28;;;;;;;14.47;13.70;;;31.60;26.00;;;;;;5062681;28;20425;-43
2023/06/15 11:41:56;;;;;;;14.43;13.53;;;30.80;26.80;;;;;;5061750;28;20492;-42
2023/06/15 11:44:23;;;;;;;13.83;13.13;;;30.30;27.80;;;;;;5063196;28;20514;-43
2023/06/15 11:47:01;;;;;;;15.27;14.47;;;29.50;27.90;;;;;;5062846;28;20533;-44
2023/06/15 11:49:35;;;;;;;14.20;13.40;;;28.70;29.50;;;;;;5062675;28;20450;-42
2023/06/15 11:52:01;;;;;;;13.30;12.60;;;28.40;31.10;;;;;;5062641;28;21103;-42
2023/06/15 11:54:28;;;;;;;13.87;13.17;;;28.10;31.90;;;;;;5063196;28;20419;-43
2023/06/15 11:56:57;;;;;;;13.73;12.93;;;27.80;30.20;;;;;;5062413;28;20427;-47
2023/06/15 11:59:25;;;;;;;13.50;12.80;;;27.30;29.00;;;;;;5062235;28;20427;-43
2023/06/15 12:01:51;;;;;;;11.50;11.00;;;26.80;29.80;;;;;;5062460;28;20922;-44
2023/06/15 12:04:17;;;;;;;12.90;12.20;;;26.50;30.90;;;;;;5062254;28;20787;-47
2023/06/15 12:06:45;;;;;;;12.60;12.00;;;25.90;32.50;;;;;;5062289;28;20426;-44
2023/06/15 12:09:11;;;;;;;13.30;12.30;;;24.80;36.90;;;;;;5062190;28;20753;-42
2023/06/15 12:11:37;;;;;;;13.17;12.37;;;24.10;38.50;;;;;;5061124;28;20439;-43
2023/06/15 12:14:07;;;;;;;13.80;12.97;;;23.50;40.50;;;;;;5062120;28;20973;-42
2023/06/15 12:16:33;;;;;;;13.97;13.17;;;22.80;38.80;;;;;;5061994;28;20505;-46
2023/06/15 12:18:59;;;;;;;14.10;13.40;;;22.00;42.80;;;;;;5061959;28;20436;-48
2023/06/15 12:21:32;;;;;;;15.07;14.17;;;21.40;47.80;;;;;;5062400;28;20427;-42
2023/06/15 12:24:00;;;;;;;17.77;16.67;;;20.70;53.30;;;;;;5061495;28;20730;-46
2023/06/15 12:26:32;;;;;;;18.03;17.03;;;20.00;58.70;;;;;;5060980;28;20466;-42
2023/06/15 12:28:59;;;;;;;19.40;18.17;;;19.70;66.30;;;;;;5060130;28;20786;-45